createdAt,value
2017-08-29T00:00:41.465Z,89.38
2017-08-29T00:03:09.238Z,89.49
2017-08-29T00:05:37.057Z,89.57
2017-08-29T00:08:04.828Z,90.00
2017-08-29T00:10:32.648Z,90.38
2017-08-29T00:13:00.462Z,90.61
2017-08-29T00:15:28.247Z,90.74
2017-08-29T00:17:56.084Z,90.63
2017-08-29T00:20:24.279Z,90.32
2017-08-29T00:22:52.122Z,89.89
2017-08-29T00:25:19.922Z,89.91
2017-08-29T00:27:47.779Z,89.66
2017-08-29T00:30:15.613Z,89.52
2017-08-29T00:32:43.455Z,89.46
2017-08-29T00:35:11.191Z,89.65
2017-08-29T00:37:39.021Z,89.62
2017-08-29T00:40:06.789Z,89.77
2017-08-29T00:42:34.595Z,89.59
2017-08-29T00:45:02.403Z,89.40
2017-08-29T00:47:30.232Z,89.28
2017-08-29T00:49:58.030Z,89.18
2017-08-29T00:52:25.860Z,89.18
2017-08-29T00:54:53.670Z,89.27
2017-08-29T00:57:21.446Z,89.30
2017-08-29T00:59:49.290Z,89.34
2017-08-29T01:02:17.096Z,89.11
2017-08-29T01:04:44.969Z,89.33
2017-08-29T01:07:12.744Z,89.88
2017-08-29T01:09:40.584Z,89.71
2017-08-29T01:12:08.426Z,89.54
2017-08-29T01:14:36.272Z,89.27
2017-08-29T01:17:04.100Z,89.75
2017-08-29T01:19:32.014Z,90.19
2017-08-29T01:21:59.852Z,90.18
2017-08-29T01:24:27.698Z,90.10
2017-08-29T01:26:55.527Z,90.05
2017-08-29T01:29:23.409Z,90.04
2017-08-29T01:31:51.167Z,89.73
2017-08-29T01:34:19.017Z,89.34
2017-08-29T01:36:46.877Z,89.49
2017-08-29T01:39:14.672Z,89.64
2017-08-29T01:41:42.550Z,89.54
2017-08-29T01:44:10.388Z,89.52
2017-08-29T01:46:38.258Z,89.47
2017-08-29T01:49:06.095Z,89.01
2017-08-29T01:51:33.967Z,88.80
2017-08-29T01:54:01.792Z,88.75
2017-08-29T01:56:29.685Z,88.76
2017-08-29T01:58:57.880Z,88.85
2017-08-29T02:01:25.876Z,89.02
2017-08-29T02:03:53.721Z,89.01
2017-08-29T02:06:21.630Z,89.05
2017-08-29T02:08:49.461Z,89.26
2017-08-29T02:11:17.248Z,89.35
2017-08-29T02:13:45.096Z,89.21
2017-08-29T02:16:12.906Z,89.15
2017-08-29T02:18:40.752Z,89.19
2017-08-29T02:24:23.820Z,89.49
2017-08-29T02:26:51.576Z,89.52
2017-08-29T02:29:19.404Z,89.33
2017-08-29T02:31:47.196Z,89.13
2017-08-29T02:34:15.025Z,89.03
2017-08-29T02:36:42.812Z,89.21
2017-08-29T02:39:10.555Z,89.41
2017-08-29T02:41:38.338Z,89.59
2017-08-29T02:44:06.193Z,89.57
2017-08-29T02:46:33.978Z,89.54
2017-08-29T02:49:01.808Z,89.45
2017-08-29T02:54:02.046Z,89.35
2017-08-29T02:56:29.848Z,89.53
2017-08-29T02:58:57.625Z,89.40
2017-08-29T03:01:25.434Z,89.03
2017-08-29T03:03:53.220Z,89.03
2017-08-29T03:06:21.041Z,89.65
2017-08-29T03:08:48.737Z,90.29
2017-08-29T03:11:16.558Z,90.57
2017-08-29T03:13:44.368Z,90.20
2017-08-29T03:16:12.194Z,90.33
2017-08-29T03:18:39.915Z,90.40
2017-08-29T03:21:07.807Z,89.84
2017-08-29T03:23:35.600Z,89.62
2017-08-29T03:26:03.411Z,89.48
2017-08-29T03:28:31.198Z,89.55
2017-08-29T03:30:59.022Z,89.25
2017-08-29T03:33:26.825Z,89.09
2017-08-29T03:35:54.648Z,89.80
2017-08-29T03:38:22.418Z,90.19
2017-08-29T03:40:50.188Z,90.06
2017-08-29T03:43:17.993Z,90.06
2017-08-29T03:45:45.799Z,90.09
2017-08-29T03:48:13.625Z,90.09
2017-08-29T03:50:41.430Z,90.07
2017-08-29T03:53:09.275Z,89.73
2017-08-29T03:55:37.078Z,89.72
2017-08-29T03:58:04.924Z,89.93
2017-08-29T04:00:32.711Z,90.02
2017-08-29T04:03:00.519Z,90.02
2017-08-29T04:05:28.288Z,90.19
2017-08-29T04:07:56.105Z,90.43
2017-08-29T04:10:23.809Z,90.09
2017-08-29T04:12:51.635Z,89.98
2017-08-29T04:15:19.429Z,89.81
2017-08-29T04:17:47.241Z,89.85
2017-08-29T04:20:14.989Z,89.79
2017-08-29T04:22:42.784Z,89.98
2017-08-29T04:25:10.674Z,90.72
2017-08-29T04:27:38.453Z,91.06
2017-08-29T04:30:06.357Z,91.41
2017-08-29T04:32:34.424Z,91.34
2017-08-29T04:35:02.248Z,91.21
2017-08-29T04:37:29.940Z,91.54
2017-08-29T04:39:57.751Z,91.60
2017-08-29T04:42:25.455Z,91.57
2017-08-29T04:44:53.146Z,91.27
2017-08-29T04:47:20.953Z,91.00
2017-08-29T04:49:48.664Z,90.96
2017-08-29T04:52:16.464Z,90.92
2017-08-29T04:54:44.200Z,91.09
2017-08-29T04:57:11.947Z,90.87
2017-08-29T04:59:39.711Z,89.71
2017-08-29T05:02:07.524Z,87.92
2017-08-29T05:04:35.278Z,85.74
2017-08-29T05:07:03.075Z,83.37
2017-08-29T05:09:30.788Z,81.89
2017-08-29T05:11:58.553Z,81.24
2017-08-29T05:14:26.287Z,82.41
2017-08-29T05:16:54.053Z,83.63
2017-08-29T05:19:21.769Z,84.49
2017-08-29T05:21:49.597Z,84.79
2017-08-29T05:24:17.355Z,85.03
2017-08-29T05:26:45.070Z,84.93
2017-08-29T05:29:12.887Z,84.93
2017-08-29T05:31:40.638Z,85.44
2017-08-29T05:34:08.505Z,85.85
2017-08-29T05:36:36.217Z,86.30
2017-08-29T05:39:04.129Z,86.48
2017-08-29T05:41:31.839Z,86.13
2017-08-29T05:43:59.613Z,85.55
2017-08-29T05:46:27.329Z,84.83
2017-08-29T05:48:55.160Z,84.50
2017-08-29T05:51:22.890Z,84.65
2017-08-29T05:53:50.668Z,84.48
2017-08-29T05:56:18.505Z,84.72
2017-08-29T05:58:46.396Z,84.51
2017-08-29T06:01:14.230Z,84.04
2017-08-29T06:03:42.035Z,83.55
2017-08-29T06:06:09.887Z,83.30
2017-08-29T06:08:37.684Z,83.97
2017-08-29T06:11:05.564Z,84.39
2017-08-29T06:13:33.475Z,84.80
2017-08-29T06:16:01.356Z,87.32
2017-08-29T06:18:29.270Z,88.68
2017-08-29T06:20:57.191Z,89.08
2017-08-29T06:23:25.020Z,88.85
2017-08-29T06:25:52.873Z,88.18
2017-08-29T06:28:20.691Z,87.64
2017-08-29T06:30:48.537Z,87.32
2017-08-29T06:33:16.350Z,87.06
2017-08-29T06:35:44.196Z,86.55
2017-08-29T06:38:12.038Z,86.49
2017-08-29T06:40:39.883Z,85.42
2017-08-29T06:43:07.672Z,84.64
2017-08-29T06:45:35.506Z,81.92
2017-08-29T06:48:03.368Z,81.80
2017-08-29T06:50:31.197Z,81.60
2017-08-29T06:52:59.006Z,80.49
2017-08-29T06:55:26.820Z,79.65
2017-08-29T06:57:54.636Z,79.96
2017-08-29T07:00:22.482Z,80.00
2017-08-29T07:02:50.344Z,78.89
2017-08-29T07:05:18.199Z,76.76
2017-08-29T07:07:46.046Z,76.83
2017-08-29T07:10:13.891Z,76.52
2017-08-29T07:12:41.712Z,75.30
2017-08-29T07:15:09.593Z,76.62
2017-08-29T07:17:37.416Z,76.13
2017-08-29T07:20:05.282Z,75.82
2017-08-29T07:22:33.169Z,75.24
2017-08-29T07:25:00.939Z,73.05
2017-08-29T07:27:28.719Z,71.20
2017-08-29T07:29:56.619Z,70.88
2017-08-29T07:32:24.449Z,71.89
2017-08-29T07:34:52.369Z,71.43
2017-08-29T07:37:20.134Z,72.10
2017-08-29T07:39:47.993Z,71.01
2017-08-29T07:42:15.717Z,70.32
2017-08-29T07:44:43.614Z,69.87
2017-08-29T07:47:11.364Z,69.81
2017-08-29T07:49:39.222Z,70.10
2017-08-29T07:52:06.944Z,69.34
2017-08-29T07:54:34.770Z,68.35
2017-08-29T07:57:02.563Z,69.41
2017-08-29T07:59:30.437Z,67.03
2017-08-29T08:01:58.167Z,66.38
2017-08-29T08:04:25.873Z,66.61
2017-08-29T08:06:53.639Z,67.10
2017-08-29T08:09:21.417Z,66.59
2017-08-29T08:11:49.369Z,65.17
2017-08-29T08:14:17.256Z,63.75
2017-08-29T08:16:45.148Z,64.59
2017-08-29T08:19:12.852Z,64.74
2017-08-29T08:21:40.731Z,64.45
2017-08-29T08:24:08.491Z,64.24
2017-08-29T08:26:36.370Z,63.21
2017-08-29T08:29:04.204Z,64.14
2017-08-29T08:31:32.074Z,63.16
2017-08-29T08:33:59.869Z,63.11
2017-08-29T08:36:27.647Z,63.04
2017-08-29T08:38:55.449Z,60.89
2017-08-29T08:41:23.246Z,61.93
2017-08-29T08:43:51.117Z,60.90
2017-08-29T08:46:18.910Z,60.55
2017-08-29T08:48:46.802Z,59.95
2017-08-29T08:51:14.600Z,60.30
2017-08-29T08:53:42.483Z,61.34
2017-08-29T08:56:10.290Z,59.79
2017-08-29T08:58:38.240Z,59.02
2017-08-29T09:01:06.068Z,59.94
2017-08-29T09:03:33.904Z,58.70
2017-08-29T09:06:01.714Z,60.28
2017-08-29T09:08:29.566Z,60.20
2017-08-29T09:10:57.290Z,59.57
2017-08-29T09:13:25.137Z,59.58
2017-08-29T09:15:52.931Z,58.27
2017-08-29T09:18:20.800Z,59.10
2017-08-29T09:20:48.695Z,58.47
2017-08-29T09:23:16.501Z,59.57
2017-08-29T09:25:44.378Z,58.15
2017-08-29T09:28:12.197Z,59.41
2017-08-29T09:30:40.048Z,60.34
2017-08-29T09:33:07.851Z,60.73
2017-08-29T09:35:35.680Z,60.94
2017-08-29T09:38:03.465Z,57.88
2017-08-29T09:40:31.332Z,58.49
2017-08-29T09:42:59.134Z,58.63
2017-08-29T09:45:26.896Z,60.26
2017-08-29T09:47:54.621Z,58.24
2017-08-29T09:50:22.385Z,59.18
2017-08-29T09:52:50.116Z,57.98
2017-08-29T09:55:17.952Z,56.72
2017-08-29T09:57:45.724Z,56.42
2017-08-29T10:00:13.460Z,55.81
2017-08-29T10:02:41.242Z,54.95
2017-08-29T10:05:08.965Z,56.06
2017-08-29T10:07:36.785Z,57.86
2017-08-29T10:10:04.487Z,55.78
2017-08-29T10:12:32.303Z,56.25
2017-08-29T10:15:00.044Z,54.92
2017-08-29T10:17:27.813Z,55.38
2017-08-29T10:19:55.560Z,54.60
2017-08-29T10:22:23.348Z,54.16
2017-08-29T10:24:51.073Z,54.58
2017-08-29T10:27:18.869Z,55.29
2017-08-29T10:29:46.567Z,53.53
2017-08-29T10:32:14.378Z,53.40
2017-08-29T10:34:42.106Z,54.05
2017-08-29T10:37:09.852Z,53.35
2017-08-29T10:39:37.689Z,53.09
2017-08-29T10:42:05.478Z,53.24
2017-08-29T10:44:33.375Z,52.60
2017-08-29T10:47:01.188Z,54.49
2017-08-29T10:49:29.019Z,52.81
2017-08-29T10:51:57.851Z,52.75
2017-08-29T10:54:25.640Z,51.92
2017-08-29T10:56:53.364Z,53.41
2017-08-29T10:59:21.139Z,53.54
2017-08-29T11:01:48.974Z,52.79
2017-08-29T11:04:16.755Z,53.45
2017-08-29T11:06:45.247Z,53.19
2017-08-29T11:09:12.998Z,52.80
2017-08-29T11:11:40.744Z,54.00
2017-08-29T11:14:08.470Z,52.21
2017-08-29T11:16:38.570Z,52.73
2017-08-29T11:19:06.373Z,51.14
2017-08-29T11:21:34.181Z,50.90
2017-08-29T11:24:01.981Z,50.81
2017-08-29T11:26:29.887Z,51.95
2017-08-29T11:28:57.665Z,52.12
2017-08-29T11:31:25.578Z,51.56
2017-08-29T11:33:53.337Z,52.32
2017-08-29T11:36:21.263Z,53.35
2017-08-29T11:38:49.091Z,52.19
2017-08-29T11:41:17.031Z,50.94
2017-08-29T11:43:44.881Z,51.82
2017-08-29T11:46:12.724Z,51.74
2017-08-29T11:48:40.625Z,51.87
2017-08-29T11:51:08.484Z,52.16
2017-08-29T11:53:36.390Z,52.96
2017-08-29T11:56:04.266Z,49.63
2017-08-29T11:58:32.177Z,52.07
2017-08-29T12:01:00.064Z,50.75
2017-08-29T12:03:27.975Z,50.86
2017-08-29T12:05:55.872Z,51.31
2017-08-29T12:08:23.780Z,51.61
2017-08-29T12:10:51.573Z,52.05
2017-08-29T12:13:19.425Z,50.51
2017-08-29T12:15:47.240Z,52.43
2017-08-29T12:18:15.055Z,51.52
2017-08-29T12:20:42.950Z,52.14
2017-08-29T12:23:10.733Z,51.21
2017-08-29T12:25:38.576Z,50.37
2017-08-29T12:28:06.412Z,52.33
2017-08-29T12:30:34.211Z,50.31
2017-08-29T12:33:02.024Z,50.32
2017-08-29T12:35:29.866Z,50.50
2017-08-29T12:37:57.681Z,51.10
2017-08-29T12:40:25.559Z,51.82
2017-08-29T12:42:53.384Z,50.84
2017-08-29T12:45:21.254Z,51.24
2017-08-29T12:47:49.096Z,51.51
2017-08-29T12:50:16.898Z,52.50
2017-08-29T12:52:44.766Z,51.62
2017-08-29T12:55:12.633Z,51.70
2017-08-29T12:57:40.476Z,51.54
2017-08-29T13:00:08.296Z,50.26
2017-08-29T13:02:36.128Z,51.52
2017-08-29T13:05:03.957Z,51.44
2017-08-29T13:07:31.821Z,51.68
2017-08-29T13:09:59.616Z,51.06
2017-08-29T13:12:27.457Z,51.53
2017-08-29T13:14:55.211Z,50.55
2017-08-29T13:17:22.975Z,51.08
2017-08-29T13:19:50.778Z,49.81
2017-08-29T13:22:18.590Z,49.50
2017-08-29T13:24:46.417Z,50.28
2017-08-29T13:27:14.180Z,50.95
2017-08-29T13:29:41.964Z,51.62
2017-08-29T13:32:09.721Z,51.08
2017-08-29T13:34:37.491Z,50.33
2017-08-29T13:37:05.223Z,50.96
2017-08-29T13:39:32.978Z,50.62
2017-08-29T13:42:00.691Z,51.20
2017-08-29T13:44:28.408Z,50.66
2017-08-29T13:46:56.178Z,51.82
2017-08-29T13:49:23.885Z,50.91
2017-08-29T13:51:51.680Z,51.24
2017-08-29T13:54:19.382Z,51.29
2017-08-29T13:56:47.144Z,51.03
2017-08-29T13:59:14.835Z,51.43
2017-08-29T14:01:42.588Z,50.81
2017-08-29T14:04:10.312Z,52.13
2017-08-29T14:06:38.079Z,51.44
2017-08-29T14:09:05.796Z,51.13
2017-08-29T14:11:33.592Z,52.55
2017-08-29T14:14:01.329Z,52.05
2017-08-29T14:16:29.183Z,53.48
2017-08-29T14:18:57.030Z,54.48
2017-08-29T14:21:24.724Z,53.97
2017-08-29T14:23:52.481Z,53.35
2017-08-29T14:26:20.231Z,52.21
2017-08-29T14:28:47.984Z,52.13
2017-08-29T14:31:15.698Z,51.27
2017-08-29T14:33:43.442Z,51.80
2017-08-29T14:36:11.220Z,51.09
2017-08-29T14:38:38.987Z,51.61
2017-08-29T14:41:06.816Z,52.63
2017-08-29T14:43:34.652Z,51.63
2017-08-29T14:46:02.383Z,52.54
2017-08-29T14:48:42.098Z,52.86
2017-08-29T14:51:10.300Z,52.64
2017-08-29T14:53:38.365Z,53.34
2017-08-29T14:56:06.188Z,54.76
2017-08-29T14:58:34.046Z,54.41
2017-08-29T15:01:01.806Z,54.63
2017-08-29T15:03:29.546Z,53.91
2017-08-29T15:05:57.358Z,52.52
2017-08-29T15:08:25.058Z,53.59
2017-08-29T15:10:52.950Z,53.72
2017-08-29T15:13:20.780Z,53.82
2017-08-29T15:15:48.619Z,52.23
2017-08-29T15:18:16.428Z,52.76
2017-08-29T15:20:44.213Z,53.45
2017-08-29T15:23:12.035Z,52.83
2017-08-29T15:25:39.907Z,52.19
2017-08-29T15:28:07.729Z,53.57
2017-08-29T15:30:35.503Z,54.52
2017-08-29T15:33:03.339Z,53.74
2017-08-29T15:35:31.149Z,52.98
2017-08-29T15:37:58.994Z,53.77
2017-08-29T15:40:26.801Z,54.04
2017-08-29T15:42:54.622Z,53.38
2017-08-29T15:45:22.363Z,54.38
2017-08-29T15:47:50.244Z,54.58
2017-08-29T15:50:18.069Z,54.05
2017-08-29T15:52:45.910Z,53.00
2017-08-29T15:55:13.692Z,54.38
2017-08-29T15:57:41.536Z,54.70
2017-08-29T16:00:09.343Z,54.96
2017-08-29T16:02:37.167Z,54.96
2017-08-29T16:05:04.947Z,54.60
2017-08-29T16:07:32.746Z,54.87
2017-08-29T16:10:00.590Z,54.89
2017-08-29T16:12:28.380Z,54.64
2017-08-29T16:14:56.169Z,53.30
2017-08-29T16:17:23.972Z,54.65
2017-08-29T16:19:51.842Z,55.08
2017-08-29T16:22:19.575Z,54.21
2017-08-29T16:24:47.469Z,54.85
2017-08-29T16:27:15.284Z,54.03
2017-08-29T16:29:43.077Z,54.71
2017-08-29T16:32:10.903Z,54.64
2017-08-29T16:34:39.228Z,55.20
2017-08-29T16:37:07.083Z,56.21
2017-08-29T16:39:34.907Z,56.79
2017-08-29T16:42:02.761Z,57.45
2017-08-29T16:44:30.580Z,57.64
2017-08-29T16:46:58.430Z,58.24
2017-08-29T16:49:26.227Z,58.70
2017-08-29T16:51:54.098Z,59.04
2017-08-29T16:54:21.912Z,59.50
2017-08-29T16:56:49.787Z,60.59
2017-08-29T16:59:17.610Z,62.38
2017-08-29T17:01:45.483Z,62.17
2017-08-29T17:04:13.290Z,62.01
2017-08-29T17:06:41.184Z,62.67
2017-08-29T17:09:09.052Z,61.31
2017-08-29T17:11:36.941Z,62.40
2017-08-29T17:14:04.808Z,63.24
2017-08-29T17:16:33.157Z,64.44
2017-08-29T17:19:26.038Z,63.76
2017-08-29T17:21:53.826Z,64.95
2017-08-29T17:24:21.615Z,65.66
2017-08-29T17:26:49.345Z,65.22
2017-08-29T17:29:17.200Z,67.08
2017-08-29T17:31:44.922Z,66.86
2017-08-29T17:34:13.088Z,67.13
2017-08-29T17:36:41.165Z,69.44
2017-08-29T17:39:09.031Z,71.72
2017-08-29T17:41:36.850Z,72.04
2017-08-29T17:44:04.742Z,72.73
2017-08-29T17:46:32.563Z,74.54
2017-08-29T17:49:00.384Z,75.26
2017-08-29T17:51:28.244Z,76.94
2017-08-29T17:53:55.993Z,79.16
2017-08-29T17:56:23.784Z,80.01
2017-08-29T17:58:51.598Z,80.58
2017-08-29T18:01:19.388Z,81.55
2017-08-29T18:03:47.157Z,81.88
2017-08-29T18:06:15.029Z,82.04
2017-08-29T18:08:42.760Z,82.14
2017-08-29T18:11:10.522Z,82.60
2017-08-29T18:13:38.232Z,82.85
2017-08-29T18:16:06.011Z,83.09
2017-08-29T18:18:33.738Z,83.10
2017-08-29T18:21:01.536Z,82.82
2017-08-29T18:23:29.259Z,82.72
2017-08-29T18:25:56.967Z,82.49
2017-08-29T18:28:25.096Z,82.56
2017-08-29T18:30:53.055Z,83.13
2017-08-29T18:33:20.859Z,83.32
2017-08-29T18:38:22.090Z,84.04
2017-08-29T18:40:49.809Z,84.08
2017-08-29T18:43:17.581Z,83.84
2017-08-29T18:45:45.374Z,83.62
2017-08-29T18:48:13.155Z,83.33
2017-08-29T18:50:41.026Z,83.38
2017-08-29T18:53:08.836Z,84.57
2017-08-29T18:55:36.570Z,84.82
2017-08-29T18:58:04.672Z,84.58
2017-08-29T19:00:32.524Z,84.09
2017-08-29T19:03:00.403Z,84.07
2017-08-29T19:05:28.325Z,84.53
2017-08-29T19:07:56.347Z,84.26
2017-08-29T19:10:24.300Z,84.44
2017-08-29T19:12:52.199Z,85.89
2017-08-29T19:15:20.126Z,86.73
2017-08-29T19:17:47.974Z,86.92
2017-08-29T19:20:15.906Z,86.77
2017-08-29T19:22:43.795Z,87.13
2017-08-29T19:25:11.612Z,87.22
2017-08-29T19:27:39.570Z,87.39
2017-08-29T19:30:07.459Z,87.86
2017-08-29T19:32:35.322Z,88.04
2017-08-29T19:35:03.166Z,88.02
2017-08-29T19:37:31.005Z,87.59
2017-08-29T19:39:58.798Z,87.71
2017-08-29T19:42:26.675Z,87.60
2017-08-29T19:44:54.494Z,87.38
2017-08-29T19:47:22.350Z,87.07
2017-08-29T19:49:50.178Z,86.65
2017-08-29T19:52:18.009Z,86.70
2017-08-29T19:54:45.877Z,87.22
2017-08-29T19:57:13.623Z,88.12
2017-08-29T19:59:41.408Z,87.96
2017-08-29T20:02:09.231Z,88.47
2017-08-29T20:04:37.192Z,87.79
2017-08-29T20:07:04.920Z,88.19
2017-08-29T20:09:32.715Z,87.35
2017-08-29T20:12:00.454Z,87.69
2017-08-29T20:14:28.238Z,88.54
2017-08-29T20:16:56.037Z,88.08
2017-08-29T20:19:23.850Z,87.61
2017-08-29T20:21:51.636Z,87.38
2017-08-29T20:24:19.412Z,87.03
2017-08-29T20:26:47.255Z,87.43
2017-08-29T20:29:15.082Z,87.71
2017-08-29T20:31:42.875Z,87.93
2017-08-29T20:34:10.686Z,88.12
2017-08-29T20:36:38.560Z,88.10
2017-08-29T20:39:06.390Z,88.07
2017-08-29T20:41:34.222Z,87.93
2017-08-29T20:44:01.983Z,88.11
2017-08-29T20:46:29.783Z,87.78
2017-08-29T20:48:57.493Z,87.45
2017-08-29T20:51:25.300Z,88.48
2017-08-29T20:53:53.056Z,90.09
2017-08-29T20:56:20.869Z,91.48
2017-08-29T20:58:48.727Z,92.00
2017-08-29T21:01:16.460Z,91.60
2017-08-29T21:03:44.349Z,90.74
2017-08-29T21:06:12.165Z,90.01
2017-08-29T21:08:40.118Z,90.10
2017-08-29T21:11:07.916Z,90.57
2017-08-29T21:13:35.836Z,90.95
2017-08-29T21:16:03.608Z,90.62
2017-08-29T21:18:31.393Z,89.64
2017-08-29T21:20:59.194Z,89.43
2017-08-29T21:23:26.932Z,89.33
2017-08-29T21:25:54.776Z,89.01
2017-08-29T21:28:22.568Z,88.93
2017-08-29T21:30:50.424Z,89.04
2017-08-29T21:33:18.243Z,89.11
2017-08-29T21:35:46.028Z,89.11
2017-08-29T21:38:13.848Z,88.99
2017-08-29T21:40:41.695Z,88.96
2017-08-29T21:43:09.547Z,88.89
2017-08-29T21:45:38.228Z,88.95
2017-08-29T21:48:06.037Z,88.88
2017-08-29T21:50:33.843Z,88.58
2017-08-29T21:53:01.651Z,88.20
2017-08-29T21:55:29.482Z,88.18
2017-08-29T21:57:57.337Z,88.13
2017-08-29T22:00:30.895Z,88.09
2017-08-29T22:02:58.742Z,88.30
2017-08-29T22:05:26.558Z,88.60
2017-08-29T22:07:54.396Z,88.45
2017-08-29T22:10:22.221Z,88.39
2017-08-29T22:12:50.080Z,88.41
2017-08-29T22:15:17.881Z,88.87
2017-08-29T22:17:45.752Z,89.57
2017-08-29T22:20:13.579Z,89.73
2017-08-29T22:22:41.411Z,89.91
2017-08-29T22:25:09.201Z,90.05
2017-08-29T22:27:36.984Z,89.91
2017-08-29T22:30:04.869Z,89.65
2017-08-29T22:32:32.592Z,88.99
2017-08-29T22:35:00.436Z,89.05
2017-08-29T22:37:28.238Z,89.08
2017-08-29T22:39:56.090Z,88.83
2017-08-29T22:42:23.905Z,88.96
2017-08-29T22:44:51.726Z,88.86
2017-08-29T22:47:19.529Z,89.17
2017-08-29T22:49:47.368Z,90.49
2017-08-29T22:52:15.161Z,89.79
2017-08-29T22:54:42.911Z,88.85
2017-08-29T22:57:10.712Z,88.70
2017-08-29T22:59:38.548Z,88.80
2017-08-29T23:02:06.376Z,88.92
2017-08-29T23:04:34.200Z,88.99
2017-08-29T23:07:01.934Z,88.79
2017-08-29T23:09:29.708Z,88.81
2017-08-29T23:11:57.540Z,88.69
2017-08-29T23:14:25.340Z,88.41
2017-08-29T23:16:53.181Z,88.76
2017-08-29T23:19:20.991Z,88.74
2017-08-29T23:21:48.871Z,88.62
2017-08-29T23:24:16.643Z,88.46
2017-08-29T23:26:44.543Z,89.94
2017-08-29T23:29:12.321Z,91.59
2017-08-29T23:31:40.164Z,92.39
2017-08-29T23:34:07.959Z,93.02
2017-08-29T23:36:35.817Z,93.25
2017-08-29T23:39:03.744Z,93.03
2017-08-29T23:41:31.557Z,93.17
2017-08-29T23:43:59.399Z,92.54
2017-08-29T23:46:27.219Z,91.44
2017-08-29T23:48:55.063Z,90.58
2017-08-29T23:51:22.855Z,90.10
2017-08-29T23:53:50.686Z,89.71
2017-08-29T23:56:18.476Z,89.67
2017-08-29T23:58:46.305Z,89.71
